Time;durP1;ratioP1;P1;durP2;ratioP2;P2;SDS_P1;SDS_P2;PMS_P1;PMS_P2;Temp;Humidity;BMP_temperature;BMP_pressure;BME280_temperature;BME280_humidity;BME280_pressure;Samples;Min_cycle;Max_cycle;Signal;HPM_P1;HPM_P2
2022/07/05 00:01:25;;;;;;;6.58;4.45;;;;;;;24.08;52.48;99696.30;1696334;84;21005;-73
2022/07/05 00:03:51;;;;;;;5.22;4.78;;;;;;;23.99;52.90;99699.70;1695628;84;21541;-72
2022/07/05 00:06:18;;;;;;;5.50;5.03;;;;;;;23.91;52.95;99700.03;1695944;84;21118;-72
2022/07/05 00:08:45;;;;;;;6.65;5.92;;;;;;;23.80;53.18;99696.09;1695989;84;21011;-72
2022/07/05 00:11:11;;;;;;;11.15;5.12;;;;;;;23.68;53.63;99696.86;1710365;83;21540;-72
2022/07/05 00:13:40;;;;;;;5.78;5.25;;;;;;;23.62;53.96;99697.39;1704724;82;21543;-72
2022/07/05 00:16:07;;;;;;;5.47;4.58;;;;;;;23.55;54.07;99704.01;1688981;84;21525;-73
2022/07/05 00:18:35;;;;;;;9.10;4.95;;;;;;;23.54;54.34;99705.14;1688393;83;21729;-71
2022/07/05 00:21:02;;;;;;;5.78;4.47;;;;;;;23.49;54.36;99699.85;1703232;83;20955;-74
2022/07/05 00:23:29;;;;;;;5.55;5.03;;;;;;;23.44;54.53;99696.70;1703546;82;20984;-74
2022/07/05 00:25:57;;;;;;;7.30;5.65;;;;;;;23.42;54.79;99701.15;1701021;83;21099;-75
2022/07/05 00:28:24;;;;;;;9.15;5.72;;;;;;;23.39;54.91;99699.66;1703885;83;20944;-73
2022/07/05 00:30:51;;;;;;;6.95;5.25;;;;;;;23.35;55.55;99698.72;1703524;84;21288;-76
2022/07/05 00:33:18;;;;;;;7.85;5.05;;;;;;;23.32;55.61;99705.66;1690263;83;21039;-71
2022/07/05 00:35:45;;;;;;;7.30;4.80;;;;;;;23.33;55.80;99711.96;1686684;83;20950;-71
2022/07/05 00:38:12;;;;;;;5.08;4.62;;;;;;;23.34;55.63;99713.02;1689633;84;21704;-74
2022/07/05 00:40:39;;;;;;;4.90;4.37;;;;;;;23.36;55.71;99715.40;1672504;84;21022;-73
2022/07/05 00:43:06;;;;;;;8.63;4.62;;;;;;;23.39;55.57;99710.63;1703199;84;21198;-71
2022/07/05 00:45:33;;;;;;;16.00;5.17;;;;;;;23.40;55.62;99715.77;1680698;84;21033;-74
2022/07/05 00:47:59;;;;;;;7.78;4.60;;;;;;;23.40;55.82;99716.36;1682079;84;21512;-73
2022/07/05 00:50:26;;;;;;;10.28;4.15;;;;;;;23.40;55.78;99722.62;1673824;85;21012;-72
2022/07/05 00:52:55;;;;;;;8.78;5.53;;;;;;;23.42;55.85;99722.30;1673395;85;22280;-74
2022/07/05 00:55:22;;;;;;;6.67;4.80;;;;;;;23.44;55.78;99718.14;1703937;84;21138;-73
2022/07/05 00:57:50;;;;;;;6.80;4.35;;;;;;;23.44;55.87;99719.51;1688231;84;21057;-74
2022/07/05 01:00:18;;;;;;;7.58;4.12;;;;;;;23.42;55.94;99719.00;1703725;84;20986;-72
2022/07/05 01:02:44;;;;;;;11.40;4.17;;;;;;;23.44;55.75;99715.92;1706558;83;21021;-74
2022/07/05 01:05:11;;;;;;;4.53;4.12;;;;;;;23.45;55.80;99712.08;1694147;84;21095;-75
2022/07/05 01:07:38;;;;;;;6.45;5.25;;;;;;;23.46;56.05;99712.29;1671662;84;22380;-76
2022/07/05 01:10:06;;;;;;;5.03;4.53;;;;;;;23.43;56.24;99716.49;1717105;82;21561;-76
2022/07/05 01:12:34;;;;;;;5.08;4.58;;;;;;;23.41;56.45;99716.58;1676315;85;21013;-76
2022/07/05 01:15:01;;;;;;;5.08;4.50;;;;;;;23.42;56.52;99723.67;1665558;84;21116;-75
2022/07/05 01:17:29;;;;;;;4.62;4.22;;;;;;;23.37;56.44;99719.19;1686543;84;21089;-75
2022/07/05 01:19:56;;;;;;;5.83;4.35;;;;;;;23.41;56.69;99717.95;1703926;83;21230;-74
2022/07/05 01:22:26;;;;;;;7.62;4.95;;;;;;;23.40;57.07;99715.77;1713463;82;21563;-76
2022/07/05 01:24:53;;;;;;;5.25;4.75;;;;;;;23.37;57.55;99715.08;1689462;84;21069;-74
2022/07/05 01:27:20;;;;;;;6.28;5.20;;;;;;;23.28;58.07;99714.34;1705551;82;21020;-76
2022/07/05 01:29:46;;;;;;;9.35;5.05;;;;;;;23.27;57.67;99717.41;1696397;82;21048;-76
2022/07/05 01:32:13;;;;;;;9.93;5.08;;;;;;;23.21;58.02;99713.27;1664884;85;22162;-76
2022/07/05 01:34:40;;;;;;;6.03;5.12;;;;;;;23.10;58.90;99714.78;1674852;85;21071;-73
2022/07/05 01:37:08;;;;;;;7.10;5.45;;;;;;;22.96;59.36;99713.09;1646727;86;21031;-75
2022/07/05 01:39:36;;;;;;;9.65;5.42;;;;;;;22.90;59.63;99713.04;1660310;85;21061;-76
2022/07/05 01:42:06;;;;;;;7.12;5.95;;;;;;;22.90;59.39;99713.04;1675318;85;21064;-76
2022/07/05 01:44:32;;;;;;;6.83;5.30;;;;;;;22.84;60.08;99710.80;1683140;84;21168;-75
2022/07/05 01:47:07;;;;;;;7.05;6.30;;;;;;;22.74;60.45;99709.80;1686639;85;21087;-75
2022/07/05 01:49:43;;;;;;;9.05;6.67;;;;;;;22.60;61.00;99707.25;1686486;84;21617;-76
2022/07/05 01:52:12;;;;;;;8.00;6.95;;;;;;;22.41;62.55;99710.95;1686644;84;21057;-75
2022/07/05 01:54:38;;;;;;;9.53;6.40;;;;;;;22.30;62.76;99714.61;1687099;84;21541;-76
2022/07/05 01:57:06;;;;;;;9.48;6.72;;;;;;;22.24;62.32;99715.94;1689264;84;21253;-75
2022/07/05 01:59:36;;;;;;;7.42;6.22;;;;;;;22.24;62.62;99721.98;1676005;85;21088;-74
2022/07/05 02:02:04;;;;;;;7.22;6.53;;;;;;;22.16;62.67;99715.37;1687965;83;21060;-75
2022/07/05 02:04:31;;;;;;;7.22;6.58;;;;;;;22.22;62.64;99718.19;1660301;85;21166;-75
2022/07/05 02:06:58;;;;;;;6.50;5.58;;;;;;;22.21;62.47;99707.54;1649367;84;21052;-76
2022/07/05 02:09:25;;;;;;;8.98;5.47;;;;;;;22.31;61.45;99715.41;1685453;83;22060;-75
2022/07/05 02:11:52;;;;;;;5.47;4.97;;;;;;;22.42;61.05;99715.31;1701262;82;21647;-76
2022/07/05 02:14:19;;;;;;;5.42;4.70;;;;;;;22.47;60.78;99717.31;1688443;84;21027;-77
2022/07/05 02:16:46;;;;;;;10.48;6.05;;;;;;;22.52;60.65;99714.95;1669349;86;21045;-77
2022/07/05 02:19:13;;;;;;;8.38;6.47;;;;;;;22.52;60.59;99722.62;1673265;83;21051;-74
2022/07/05 02:21:42;;;;;;;10.18;7.08;;;;;;;22.57;60.52;99716.14;1681456;84;21114;-77
2022/07/05 02:24:12;;;;;;;6.67;5.95;;;;;;;22.56;60.52;99714.53;1678918;84;21043;-77
2022/07/05 02:26:44;;;;;;;9.53;6.33;;;;;;;22.55;60.35;99716.47;1708381;83;21113;-78
2022/07/05 02:29:10;;;;;;;10.70;7.37;;;;;;;22.58;60.23;99715.83;1708972;83;21016;-78
2022/07/05 02:31:38;;;;;;;8.15;6.05;;;;;;;22.65;60.06;99713.92;1709404;82;21047;-76
2022/07/05 02:34:07;;;;;;;6.60;5.12;;;;;;;22.73;59.65;99712.33;1697644;84;21166;-77
2022/07/05 02:36:34;;;;;;;6.45;5.85;;;;;;;22.80;59.43;99713.97;1694165;83;20936;-73
2022/07/05 02:39:01;;;;;;;8.45;5.95;;;;;;;22.84;59.42;99713.55;1710648;83;21065;-73
2022/07/05 02:41:28;;;;;;;8.23;6.67;;;;;;;22.81;59.76;99715.02;1696330;84;21093;-74
2022/07/05 02:43:55;;;;;;;6.75;5.85;;;;;;;22.73;60.02;99726.84;1699179;83;21540;-74
2022/07/05 02:46:23;;;;;;;7.78;5.67;;;;;;;22.68;60.13;99716.03;1664126;85;21166;-74
2022/07/05 02:48:52;;;;;;;11.25;5.15;;;;;;;22.67;60.02;99713.05;1695610;84;22076;-74
2022/07/05 02:51:20;;;;;;;6.25;5.67;;;;;;;22.67;60.08;99714.41;1696606;84;21036;-75
2022/07/05 02:53:50;;;;;;;7.55;5.83;;;;;;;22.64;60.38;99712.31;1706399;84;21442;-74
2022/07/05 02:56:19;;;;;;;7.97;5.87;;;;;;;22.63;60.34;99718.14;1710687;83;20938;-79
2022/07/05 02:58:47;;;;;;;8.08;5.85;;;;;;;22.67;60.22;99719.09;1728170;82;21798;-77
2022/07/05 03:01:14;;;;;;;7.12;6.37;;;;;;;22.71;60.30;99720.88;1717623;83;21099;-76
2022/07/05 03:03:41;;;;;;;7.05;5.45;;;;;;;22.73;60.42;99720.56;1706771;83;21055;-75
2022/07/05 03:06:09;;;;;;;10.88;6.47;;;;;;;22.75;60.44;99720.45;1708462;83;21093;-75
2022/07/05 03:08:35;;;;;;;10.13;7.30;;;;;;;22.77;60.53;99722.88;1671649;85;21496;-76
2022/07/05 03:11:02;;;;;;;8.55;7.40;;;;;;;22.80;60.84;99718.89;1694009;84;21484;-76
2022/07/05 03:13:30;;;;;;;10.25;6.42;;;;;;;22.82;61.00;99724.06;1703162;83;20985;-73
2022/07/05 03:15:57;;;;;;;6.90;6.30;;;;;;;22.82;60.90;99721.31;1698599;84;21514;-74
2022/07/05 03:18:24;;;;;;;13.20;7.55;;;;;;;22.86;60.87;99730.48;1698825;84;20937;-73
2022/07/05 03:20:52;;;;;;;7.55;6.35;;;;;;;22.88;60.95;99734.49;1698837;83;21028;-73
2022/07/05 03:23:19;;;;;;;9.35;6.12;;;;;;;22.90;60.84;99734.17;1696728;83;22495;-73
2022/07/05 03:25:49;;;;;;;8.10;6.55;;;;;;;22.90;60.72;99739.09;1698295;83;20996;-73
2022/07/05 03:28:16;;;;;;;6.42;5.83;;;;;;;22.91;60.72;99734.42;1697561;84;21077;-74
2022/07/05 03:30:44;;;;;;;8.13;6.62;;;;;;;22.94;60.77;99741.98;1698849;83;20956;-75
2022/07/05 03:33:11;;;;;;;8.75;6.62;;;;;;;22.97;60.73;99737.22;1698832;84;21048;-74
2022/07/05 03:35:41;;;;;;;9.23;6.55;;;;;;;22.96;60.85;99730.92;1698700;84;21065;-75
2022/07/05 03:38:09;;;;;;;10.32;7.08;;;;;;;23.00;60.96;99733.23;1701286;84;21033;-73
2022/07/05 03:40:36;;;;;;;6.92;6.20;;;;;;;23.04;61.02;99732.80;1692997;84;21011;-74
2022/07/05 03:43:03;;;;;;;7.10;6.00;;;;;;;23.09;60.91;99739.23;1695512;84;21044;-76
2022/07/05 03:45:33;;;;;;;8.13;6.65;;;;;;;23.12;60.92;99734.47;1668668;85;21110;-76
2022/07/05 03:48:02;;;;;;;8.83;6.17;;;;;;;23.15;61.29;99729.13;1697172;84;21021;-78
2022/07/05 03:50:29;;;;;;;9.08;6.80;;;;;;;23.21;60.98;99731.11;1689155;83;21001;-78
2022/07/05 03:52:56;;;;;;;8.48;6.22;;;;;;;23.24;60.81;99729.87;1669825;84;21487;-77
2022/07/05 03:55:23;;;;;;;9.95;6.95;;;;;;;23.26;60.88;99734.44;1697243;84;21057;-77
2022/07/05 03:57:51;;;;;;;11.10;7.22;;;;;;;23.29;60.99;99736.53;1697151;84;21076;-75
2022/07/05 04:00:17;;;;;;;9.58;6.03;;;;;;;23.33;61.03;99739.41;1669248;86;21883;-76
2022/07/05 04:02:47;;;;;;;16.27;6.78;;;;;;;23.38;61.13;99732.35;1668697;84;21028;-75
2022/07/05 04:05:14;;;;;;;9.83;6.60;;;;;;;23.43;60.92;99734.34;1698711;84;20997;-75
2022/07/05 04:07:52;;;;;;;11.18;7.08;;;;;;;23.51;60.63;99740.11;1699629;84;21005;-81
2022/07/05 04:10:23;;;;;;;10.23;7.00;;;;;;;23.56;60.44;99739.91;1701093;83;21047;-79
2022/07/05 04:12:50;;;;;;;7.75;6.80;;;;;;;23.61;60.41;99732.85;1695818;84;21245;-81
2022/07/05 04:15:17;;;;;;;11.05;7.00;;;;;;;23.66;60.39;99734.02;1702310;84;20960;-78
2022/07/05 04:17:53;;;;;;;12.58;6.08;;;;;;;23.70;60.33;99730.84;1704449;83;20953;-80
2022/07/05 04:20:21;;;;;;;10.58;6.97;;;;;;;23.72;60.40;99733.50;1704222;84;21560;-79
2022/07/05 04:22:50;;;;;;;10.60;6.65;;;;;;;23.74;60.30;99722.96;1705318;84;21060;-80
2022/07/05 04:25:19;;;;;;;8.38;6.78;;;;;;;23.79;60.25;99733.74;1705466;84;21058;-80
2022/07/05 04:27:52;;;;;;;7.75;6.55;;;;;;;23.84;60.28;99734.91;1704619;83;21121;-74
2022/07/05 04:30:22;;;;;;;9.88;5.95;;;;;;;23.86;60.30;99731.27;1704358;83;21016;-74
2022/07/05 04:32:49;;;;;;;6.85;6.28;;;;;;;23.90;60.41;99736.32;1703178;84;21017;-73
2022/07/05 04:35:16;;;;;;;8.68;6.20;;;;;;;23.94;60.38;99737.81;1703476;84;21021;-74
2022/07/05 04:37:44;;;;;;;11.57;6.33;;;;;;;24.00;60.09;99741.16;1704977;84;21259;-73
2022/07/05 04:40:12;;;;;;;14.23;10.25;;;;;;;24.06;59.97;99739.82;1710479;82;20999;-75
2022/07/05 04:42:40;;;;;;;14.68;13.13;;;;;;;24.11;59.83;99735.48;1697390;84;21530;-78
2022/07/05 04:45:08;;;;;;;20.72;12.55;;;;;;;24.16;59.78;99744.36;1706435;84;21586;-77
2022/07/05 04:47:38;;;;;;;12.80;7.85;;;;;;;24.22;59.79;99740.23;1672689;84;21004;-76
2022/07/05 04:50:07;;;;;;;6.90;6.20;;;;;;;24.26;59.84;99737.06;1682138;83;21190;-74
2022/07/05 04:52:36;;;;;;;12.78;6.70;;;;;;;24.32;59.79;99732.13;1725866;83;21125;-74
2022/07/05 04:55:03;;;;;;;9.43;8.10;;;;;;;24.36;59.86;99735.83;1695882;84;21067;-75
2022/07/05 04:57:40;;;;;;;12.55;9.30;;;;;;;24.40;59.89;99730.44;1705008;83;21134;-74
2022/07/05 05:00:11;;;;;;;9.20;7.62;;;;;;;24.45;59.87;99728.28;1709829;82;21061;-74
2022/07/05 05:02:40;;;;;;;9.60;6.47;;;;;;;24.52;59.81;99734.00;1683112;84;21922;-74
2022/07/05 05:05:07;;;;;;;9.58;6.75;;;;;;;24.58;59.52;99736.77;1706558;82;21498;-75
2022/07/05 05:07:36;;;;;;;10.85;6.50;;;;;;;24.66;59.25;99733.67;1710233;83;20968;-74
2022/07/05 05:10:06;;;;;;;7.80;5.80;;;;;;;24.74;59.00;99734.16;1710688;82;21102;-75
2022/07/05 05:12:34;;;;;;;11.75;7.05;;;;;;;24.80;58.74;99722.33;1655654;86;21064;-77
2022/07/05 05:15:03;;;;;;;8.20;5.78;;;;;;;24.89;58.49;99727.20;1684108;83;22108;-75
2022/07/05 05:17:39;;;;;;;11.03;6.92;;;;;;;24.98;58.32;99736.15;1683109;84;20993;-76
2022/07/05 05:20:15;;;;;;;12.58;10.30;;;;;;;25.04;58.13;99729.24;1694069;82;20971;-77
2022/07/05 05:22:41;;;;;;;12.47;7.72;;;;;;;25.14;58.03;99730.16;1672822;84;21040;-78
2022/07/05 05:25:09;;;;;;;9.63;7.05;;;;;;;25.21;58.08;99730.39;1710610;83;21123;-80
2022/07/05 05:27:47;;;;;;;7.40;6.72;;;;;;;25.29;58.24;99734.95;1710135;82;21575;-78
2022/07/05 05:30:14;;;;;;;11.65;6.83;;;;;;;25.35;58.43;99737.71;1695997;84;21028;-79
2022/07/05 05:32:42;;;;;;;30.57;11.65;;;;;;;25.39;58.62;99742.75;1697170;82;21056;-77
2022/07/05 05:35:10;;;;;;;39.40;16.70;;;;;;;25.44;59.14;99746.64;1698786;83;20996;-77
2022/07/05 05:37:54;;;;;;;43.45;20.57;;;;;;;25.48;59.55;99748.92;1685111;84;21563;-77
2022/07/05 05:40:22;;;;;;;43.78;21.30;;;;;;;25.53;59.44;99750.63;1702453;84;21066;-79
2022/07/05 05:42:50;;;;;;;46.20;20.70;;;;;;;25.56;59.31;99750.77;1706763;83;21505;-79
2022/07/05 05:45:17;;;;;;;38.40;19.37;;;;;;;25.63;59.26;99750.75;1704338;82;21528;-80
2022/07/05 05:47:50;;;;;;;31.60;18.42;;;;;;;25.67;59.17;99749.70;1706723;83;21032;-81
2022/07/05 05:50:34;;;;;;;43.83;19.57;;;;;;;25.73;59.09;99752.45;1705410;83;21007;-81
2022/07/05 05:53:01;;;;;;;40.80;22.87;;;;;;;25.81;58.91;99750.69;1688059;85;21861;-79
2022/07/05 05:55:29;;;;;;;49.50;25.85;;;;;;;25.87;59.16;99748.73;1696800;84;21114;-81
2022/07/05 05:58:02;;;;;;;39.10;24.77;;;;;;;25.92;59.17;99751.81;1710625;83;21017;-79
2022/07/05 06:00:28;;;;;;;53.13;24.85;;;;;;;25.98;58.97;99753.98;1696552;84;20988;-82
2022/07/05 06:02:57;;;;;;;38.75;23.60;;;;;;;26.04;58.46;99758.67;1690148;84;21076;-81
2022/07/05 06:05:26;;;;;;;54.35;22.77;;;;;;;26.08;58.26;99749.91;1706980;84;21592;-78
2022/07/05 06:07:54;;;;;;;48.52;22.85;;;;;;;26.17;57.99;99742.28;1706640;83;21063;-78
2022/07/05 06:10:24;;;;;;;57.23;23.73;;;;;;;26.27;57.65;99742.38;1707159;83;21596;-77
2022/07/05 06:12:53;;;;;;;50.63;20.90;;;;;;;26.37;57.25;99740.48;1706915;83;21107;-77
2022/07/05 06:15:20;;;;;;;59.98;21.45;;;;;;;26.47;56.99;99742.73;1700922;84;21033;-76
2022/07/05 06:17:48;;;;;;;44.63;20.00;;;;;;;26.56;56.81;99745.31;1696750;84;21068;-77
2022/07/05 06:20:19;;;;;;;48.05;19.30;;;;;;;26.64;56.47;99751.22;1696599;84;20981;-78
2022/07/05 06:22:46;;;;;;;44.70;16.87;;;;;;;26.72;56.47;99752.42;1699066;84;20953;-77
2022/07/05 06:25:14;;;;;;;34.13;13.55;;;;;;;26.80;56.14;99752.84;1701886;84;21128;-75
2022/07/05 06:27:43;;;;;;;29.98;12.78;;;;;;;26.88;55.73;99751.89;1702056;83;21077;-77
2022/07/05 06:30:17;;;;;;;28.00;10.75;;;;;;;26.97;55.32;99743.41;1698330;83;21800;-78
2022/07/05 06:32:45;;;;;;;18.87;8.95;;;;;;;27.04;54.89;99742.79;1695177;84;21085;-79
2022/07/05 06:35:11;;;;;;;18.30;9.03;;;;;;;27.10;54.64;99747.66;1694561;84;21010;-80
2022/07/05 06:37:57;;;;;;;22.10;9.20;;;;;;;27.13;54.39;99753.87;1690566;84;21049;-79
2022/07/05 06:40:30;;;;;;;12.93;8.05;;;;;;;27.18;54.34;99750.03;1703363;83;21552;-79
2022/07/05 06:42:59;;;;;;;20.15;9.05;;;;;;;27.26;54.33;99750.41;1702269;84;21156;-80
2022/07/05 06:45:30;;;;;;;16.62;7.80;;;;;;;27.33;54.05;99751.39;1703088;83;21084;-78
2022/07/05 06:48:02;;;;;;;17.40;8.60;;;;;;;27.41;53.98;99748.77;1696824;84;20997;-77
2022/07/05 06:50:35;;;;;;;14.43;7.50;;;;;;;27.48;53.49;99751.70;1695557;83;21565;-77
2022/07/05 06:53:04;;;;;;;10.30;7.10;;;;;;;27.54;53.18;99748.30;1695943;84;21081;-77
2022/07/05 06:55:32;;;;;;;9.10;6.92;;;;;;;27.60;53.14;99744.10;1695922;84;21337;-76
2022/07/05 06:58:07;;;;;;;13.78;8.83;;;;;;;27.69;52.94;99750.80;1696579;83;20973;-77
2022/07/05 07:00:34;;;;;;;12.00;7.53;;;;;;;27.77;52.82;99744.85;1699019;84;21075;-76
2022/07/05 07:03:02;;;;;;;11.80;6.65;;;;;;;27.83;52.48;99744.18;1695803;84;21010;-77
2022/07/05 07:05:29;;;;;;;10.28;6.80;;;;;;;27.90;52.17;99748.48;1695757;84;21057;-78
2022/07/05 07:10:42;;;;;;;14.78;5.90;;;;;;;28.02;51.37;99753.85;1697076;84;20989;-77
2022/07/05 07:13:08;;;;;;;12.13;5.33;;;;;;;28.12;50.93;99749.73;1671718;84;21095;-77
2022/07/05 07:15:37;;;;;;;12.47;5.55;;;;;;;28.16;50.42;99747.83;1676200;84;20961;-77
2022/07/05 07:18:04;;;;;;;7.20;5.03;;;;;;;28.20;49.93;99752.87;1698330;84;21163;-76
2022/07/05 07:20:31;;;;;;;8.43;4.37;;;;;;;28.24;49.84;99755.11;1684006;84;21595;-76
2022/07/05 07:22:58;;;;;;;7.80;5.72;;;;;;;28.28;49.74;99746.30;1697384;84;20964;-76
2022/07/05 07:25:32;;;;;;;9.65;4.62;;;;;;;28.31;49.19;99749.70;1698909;84;20956;-76
2022/07/05 07:27:57;;;;;;;7.17;4.87;;;;;;;28.36;48.56;99746.63;1696624;83;21036;-77
2022/07/05 07:30:26;;;;;;;6.95;6.12;;;;;;;28.42;48.53;99746.55;1698067;83;21060;-78
2022/07/05 07:32:55;;;;;;;6.87;5.05;;;;;;;28.51;48.89;99751.84;1697184;84;21120;-79
2022/07/05 07:35:22;;;;;;;7.12;5.75;;;;;;;28.57;48.39;99745.64;1697167;84;21013;-79
2022/07/05 07:37:49;;;;;;;7.53;4.58;;;;;;;28.65;47.80;99748.52;1695454;83;20953;-77
2022/07/05 07:40:15;;;;;;;5.17;4.55;;;;;;;28.71;48.02;99748.44;1702917;83;23294;-77
2022/07/05 07:42:44;;;;;;;9.50;5.28;;;;;;;28.77;48.12;99747.00;1698983;84;21083;-78
2022/07/05 07:45:12;;;;;;;5.12;4.62;;;;;;;28.86;47.19;99753.08;1695154;83;21610;-77
2022/07/05 07:47:40;;;;;;;7.60;4.33;;;;;;;28.96;47.13;99751.07;1695149;84;21005;-77
2022/07/05 07:50:09;;;;;;;5.30;4.20;;;;;;;29.01;46.01;99748.79;1705921;83;21104;-78
2022/07/05 07:52:38;;;;;;;7.92;4.83;;;;;;;29.03;46.15;99746.43;1670626;85;20996;-78
2022/07/05 07:55:06;;;;;;;5.40;4.87;;;;;;;29.10;45.97;99745.75;1669102;86;21042;-75
2022/07/05 07:57:33;;;;;;;6.25;5.12;;;;;;;29.14;45.48;99741.64;1678777;84;21513;-76
2022/07/05 07:59:59;;;;;;;7.42;4.50;;;;;;;29.18;45.39;99740.52;1696518;84;20961;-76
2022/07/05 08:02:29;;;;;;;5.42;4.78;;;;;;;29.25;45.39;99739.84;1699019;83;20976;-76
2022/07/05 08:04:58;;;;;;;7.85;5.42;;;;;;;29.30;45.40;99738.97;1669294;85;21037;-76
2022/07/05 08:07:26;;;;;;;5.67;5.08;;;;;;;29.39;45.41;99740.88;1670770;85;21055;-78
2022/07/05 08:09:53;;;;;;;14.60;7.85;;;;;;;29.49;44.85;99733.08;1693740;84;21098;-78
2022/07/05 08:12:20;;;;;;;6.80;5.28;;;;;;;29.56;43.83;99734.55;1695441;83;21021;-78
2022/07/05 08:14:46;;;;;;;7.62;4.92;;;;;;;29.64;42.79;99732.09;1689968;83;21529;-80
2022/07/05 08:17:14;;;;;;;6.95;5.85;;;;;;;29.70;41.22;99731.38;1708844;82;21111;-77
2022/07/05 08:22:29;;;;;;;10.25;5.45;;;;;;;29.80;40.16;99728.52;1702958;84;21342;-79
2022/07/05 08:24:56;;;;;;;16.10;5.53;;;;;;;29.84;39.14;99718.27;1687756;84;21094;-76
2022/07/05 08:27:23;;;;;;;6.08;5.30;;;;;;;29.89;39.83;99724.89;1703635;83;21114;-77
2022/07/05 08:29:51;;;;;;;11.50;4.67;;;;;;;29.89;40.27;99717.38;1703679;82;21019;-76
2022/07/05 08:32:21;;;;;;;17.70;5.45;;;;;;;29.92;39.75;99713.65;1703247;83;21778;-73
2022/07/05 08:34:49;;;;;;;9.88;4.15;;;;;;;29.91;39.42;99701.75;1703621;83;21489;-76
2022/07/05 08:37:16;;;;;;;17.05;5.83;;;;;;;29.96;39.09;99708.94;1688598;84;20981;-75
2022/07/05 08:39:43;;;;;;;6.90;5.28;;;;;;;30.01;38.84;99714.95;1732775;82;21031;-77
2022/07/05 08:42:10;;;;;;;10.95;5.70;;;;;;;30.04;39.46;99718.34;1711582;82;21056;-77
2022/07/05 08:44:40;;;;;;;10.10;4.72;;;;;;;30.12;39.67;99713.06;1641282;85;21055;-75
2022/07/05 08:47:11;;;;;;;5.22;4.78;;;;;;;30.21;39.51;99710.81;1703479;83;21043;-76
2022/07/05 08:49:41;;;;;;;5.65;4.58;;;;;;;30.31;38.38;99713.48;1703539;83;20932;-77
2022/07/05 08:52:11;;;;;;;7.03;5.72;;;;;;;30.32;38.08;99715.86;1704455;83;21067;-79
2022/07/05 08:54:41;;;;;;;7.75;4.72;;;;;;;30.31;38.07;99711.48;1703839;83;21575;-80
2022/07/05 08:57:08;;;;;;;5.10;4.45;;;;;;;30.36;38.28;99713.72;1687821;83;21084;-75
2022/07/05 08:59:35;;;;;;;6.37;5.15;;;;;;;30.44;38.25;99720.93;1701311;82;21130;-76
2022/07/05 09:02:04;;;;;;;13.95;5.05;;;;;;;30.46;37.75;99711.64;1718417;82;20997;-76
2022/07/05 09:04:33;;;;;;;8.08;5.12;;;;;;;30.48;37.71;99712.88;1703351;84;21039;-75
2022/07/05 09:07:04;;;;;;;5.20;4.80;;;;;;;30.52;37.63;99720.64;1686642;83;21002;-76
2022/07/05 09:09:32;;;;;;;5.12;4.62;;;;;;;30.49;36.86;99723.39;1677253;83;21085;-77
2022/07/05 09:11:59;;;;;;;8.08;4.40;;;;;;;30.41;36.65;99719.70;1683450;83;21760;-76
2022/07/05 09:14:25;;;;;;;7.17;4.70;;;;;;;30.38;36.83;99722.45;1687534;84;21478;-78
2022/07/05 09:16:52;;;;;;;7.05;5.55;;;;;;;30.39;37.04;99718.50;1686601;85;21033;-76
2022/07/05 09:19:19;;;;;;;6.05;5.45;;;;;;;30.46;36.67;99719.38;1667265;84;21558;-79
2022/07/05 09:21:51;;;;;;;4.83;4.22;;;;;;;30.55;36.15;99718.47;1662371;84;21066;-78
2022/07/05 09:24:18;;;;;;;7.37;5.62;;;;;;;30.57;35.79;99720.88;1675899;83;21267;-77
2022/07/05 09:26:48;;;;;;;5.75;4.60;;;;;;;30.63;35.85;99724.91;1688211;84;21053;-75
2022/07/05 09:29:20;;;;;;;7.75;4.55;;;;;;;30.70;35.89;99725.75;1689272;84;21033;-77
2022/07/05 09:31:49;;;;;;;5.00;4.50;;;;;;;30.77;36.04;99718.67;1688502;84;21005;-75
2022/07/05 09:34:17;;;;;;;6.08;4.45;;;;;;;30.85;35.49;99727.25;1690497;84;20962;-76
2022/07/05 09:37:01;;;;;;;6.00;5.17;;;;;;;30.76;34.71;99727.59;1709693;83;21076;-75
2022/07/05 09:39:37;;;;;;;4.92;4.53;;;;;;;30.71;35.55;99730.72;1688475;84;21049;-75
2022/07/05 09:42:23;;;;;;;4.58;4.15;;;;;;;30.72;35.59;99728.95;1694685;82;20995;-76
2022/07/05 09:44:52;;;;;;;5.60;4.53;;;;;;;30.70;34.79;99724.95;1704052;83;21624;-77
2022/07/05 09:47:22;;;;;;;6.15;4.78;;;;;;;30.77;34.62;99731.97;1688641;84;21010;-79
2022/07/05 09:49:53;;;;;;;5.78;4.80;;;;;;;30.81;33.82;99722.27;1683223;84;21140;-76
2022/07/05 09:52:33;;;;;;;4.30;3.85;;;;;;;30.89;33.97;99726.09;1703407;83;21482;-75
2022/07/05 09:55:19;;;;;;;5.25;4.80;;;;;;;31.05;33.96;99732.80;1688368;84;21062;-70
2022/07/05 09:57:43;;;;;;;5.10;4.70;;;;;;;31.17;34.19;99728.33;1672869;83;20942;-69
2022/07/05 10:00:15;;;;;;;7.25;5.60;;;;;;;31.28;35.66;99713.89;1703553;84;21067;-70
2022/07/05 10:02:45;;;;;;;5.80;5.20;;;;;;;31.34;35.29;99722.08;1669133;85;21130;-70
2022/07/05 10:05:16;;;;;;;6.92;5.40;;;;;;;31.43;35.69;99715.57;1690018;84;21042;-71
2022/07/05 10:07:45;;;;;;;9.23;5.12;;;;;;;31.53;35.14;99718.20;1689459;85;21052;-71
2022/07/05 10:10:15;;;;;;;7.17;4.40;;;;;;;31.58;35.28;99710.91;1704759;83;21056;-74
2022/07/05 10:12:43;;;;;;;7.53;5.10;;;;;;;31.59;35.51;99705.55;1704116;82;20992;-74
2022/07/05 10:15:12;;;;;;;8.00;5.87;;;;;;;31.67;35.96;99707.17;1689610;84;21122;-74
2022/07/05 10:17:42;;;;;;;5.78;5.17;;;;;;;31.75;35.71;99706.00;1709814;83;21070;-72
2022/07/05 10:20:23;;;;;;;14.95;5.65;;;;;;;31.80;35.35;99708.41;1664023;84;21081;-73
2022/07/05 10:22:50;;;;;;;5.95;5.22;;;;;;;31.86;34.77;99710.22;1659540;85;21540;-71
2022/07/05 10:25:16;;;;;;;5.90;5.30;;;;;;;31.85;34.61;99700.27;1674633;85;21078;-73
2022/07/05 10:27:43;;;;;;;7.10;5.50;;;;;;;31.85;34.93;99702.47;1673790;85;21554;-72
2022/07/05 10:30:11;;;;;;;5.70;5.20;;;;;;;31.95;34.85;99708.66;1679878;85;20959;-72
2022/07/05 10:32:40;;;;;;;11.00;5.33;;;;;;;32.05;34.66;99704.31;1709486;83;33508;-70
2022/07/05 10:35:09;;;;;;;7.53;5.22;;;;;;;32.18;33.93;99706.18;1715444;82;21557;-70
2022/07/05 10:37:36;;;;;;;6.55;4.80;;;;;;;32.28;33.83;99702.63;1718272;82;21101;-71
2022/07/05 10:40:05;;;;;;;6.37;5.53;;;;;;;32.34;33.74;99694.86;1702263;83;21198;-71
2022/07/05 10:42:41;;;;;;;4.78;4.30;;;;;;;32.28;33.54;99694.27;1703465;83;21000;-70
2022/07/05 10:45:31;;;;;;;4.90;4.40;;;;;;;32.23;33.65;99693.27;1703789;84;20992;-70
2022/07/05 10:48:26;;;;;;;10.40;5.37;;;;;;;32.21;34.11;99695.05;1689767;85;21251;-72
2022/07/05 10:51:00;;;;;;;10.90;5.03;;;;;;;32.20;33.96;99692.65;1689763;84;21053;-74
2022/07/05 10:53:41;;;;;;;9.13;5.17;;;;;;;32.15;33.91;99692.44;1689525;84;21064;-75
2022/07/05 10:56:12;;;;;;;5.53;4.40;;;;;;;32.16;33.87;99694.63;1688886;85;20958;-70
2022/07/05 10:58:47;;;;;;;6.85;4.85;;;;;;;32.20;33.60;99690.66;1676948;85;21534;-71
2022/07/05 11:01:25;;;;;;;8.35;5.22;;;;;;;32.19;33.75;99691.05;1669685;85;21031;-74
2022/07/05 11:04:05;;;;;;;4.70;4.28;;;;;;;32.27;34.36;99689.89;1660704;86;21060;-69
2022/07/05 11:06:43;;;;;;;5.42;4.87;;;;;;;32.38;33.75;99681.73;1660305;85;22153;-66
2022/07/05 11:09:15;;;;;;;5.17;4.75;;;;;;;32.49;33.50;99680.95;1686874;85;21491;-68
2022/07/05 11:11:55;;;;;;;15.78;5.33;;;;;;;32.52;33.46;99675.36;1700578;83;21616;-74
2022/07/05 11:14:29;;;;;;;5.75;4.70;;;;;;;32.56;33.49;99682.35;1699614;83;21069;-73
2022/07/05 11:17:25;;;;;;;6.28;4.47;;;;;;;32.59;33.31;99676.77;1700646;83;21032;-73
2022/07/05 11:20:21;;;;;;;7.95;4.75;;;;;;;32.58;33.48;99668.80;1701012;84;21102;-75
2022/07/05 11:23:08;;;;;;;7.62;4.78;;;;;;;32.62;33.21;99669.00;1673676;85;20989;-74
2022/07/05 11:25:42;;;;;;;4.33;4.00;;;;;;;32.58;33.13;99668.80;1702058;83;21024;-74
2022/07/05 11:28:16;;;;;;;6.33;4.53;;;;;;;32.50;33.49;99664.44;1687982;84;21104;-76
2022/07/05 11:30:56;;;;;;;8.15;5.08;;;;;;;32.34;34.03;99667.02;1687125;84;21169;-77
2022/07/05 11:33:41;;;;;;;5.95;5.35;;;;;;;32.20;34.41;99659.24;1686740;84;21218;-76
2022/07/05 11:36:28;;;;;;;13.85;5.47;;;;;;;32.12;34.49;99664.61;1680167;84;20986;-70
2022/07/05 11:39:15;;;;;;;5.47;5.05;;;;;;;32.08;34.05;99664.58;1686595;84;21018;-71
2022/07/05 11:41:43;;;;;;;6.40;4.58;;;;;;;32.08;33.71;99667.36;1686878;85;21037;-74
2022/07/05 11:44:11;;;;;;;6.83;4.87;;;;;;;32.10;33.78;99671.95;1686688;84;20993;-74
2022/07/05 11:46:38;;;;;;;7.70;4.55;;;;;;;32.12;34.03;99673.76;1686656;84;21173;-73